Terminal Aerodrome Forecast
Issued by NWS Springfield, MO

Home | Current Version | Previous Version | Text Only | Print | Product List | Glossary On
Versions: 1 2 3 4 5 6 7 8 9 10 11 12 13 14 15 16 17 18 19 20 21 22 23 24 25 26 27 28 29 30 31
000
FTUS43 KSGF 272300
TAFSGF
TAF
KSGF 272326Z 2800/2824 00000KT P6SM VCTS BKN070CB
     FM280300 VRB05KT P6SM SCT250
     FM281200 14008KT 5SM BR SCT250
     FM281500 16008KT P6SM VCTS BKN050CB
      TEMPO 2818/2821 4SM -TSRA BR OVC040CB=

USA.gov is the U.S. government's official web portal to all federal, state and local government web resources and services.